Delray Beach, FL

7:39 AM EST on November 24, 2014 (GMT -0500)
Lake Ida | Change Station
CLOSE
Current Station
Personal Weather Station
Location: Delray Beach, FL
Elevation: 10 ft
Nearby Weather Stations

Elev 10 ft 26.47 °N, 80.08 °W | Updated 4 seconds ago

Partly Cloudy
Partly Cloudy
76.8 °F
Feels Like 78 °F
N
0.0
Wind Variable Wind from South
Gusts 3.0 mph

Today
High -- | Low -- °F
--% Chance of Precip.
Yesterday
High -- | Low -- °F
Precip. -- in
6:46 AM 5:27 PM
Waxing Crescent, 5% visible
Pressure 29.99 in
Visibility 7.0 miles
Clouds Few 1300 ft
Heat Index 78 °F
Dew Point 75 °F
Humidity 93%
Rainfall 0.00 in
Snow Depth Not available.
UV 0 out of 12
Pollen 4.00 out of 12
Air Quality Not available.
Flu Activity Not available.
METAR KPMP 241153Z AUTO 18005KT 7SM FEW013 26/24 A2999 RMK AO2 SLP154 60000 T02560239 10267 20256 53016

More Conditions Fewer Conditions

Pressure 29.99 in
Visibility 7.0 miles
Clouds Few 1300 ft
Heat Index 78 °F
Dew Point 75 °F
Humidity 93%
Rainfall 0.00 in
Snow Depth Not available.
UV 0 out of 12
Pollen 4.00 out of 12
Air Quality Not available.
Flu Activity Not available.
METAR KPMP 241153Z AUTO 18005KT 7SM FEW013 26/24 A2999 RMK AO2 SLP154 60000 T02560239 10267 20256 53016

More Conditions Fewer Conditions

Nowcast | as of 6:59 am EST on November 24, 2014

Isolated showers will continue to move northward at 10 to 15 mph through the Atlantic waters of South Florida early this morning. One or two of the showers could even work into the east coastal areas of South Florida. Any showers that do move onshore along the East Coast of South Florida will be light.

×

10-Day Weather Forecast

Almanac

Astronomy

Nov. 24, 2014 Rise Set
Actual Time
Civil Twilight
Nautical Twilight
Astronomical Twilight
Moon
Length of Visible Light
Length of Day
Tomorrow will be .
, % of the Moon is Illuminated

Today's Extremes

State Highs State Lows

Community

WunderPhotos

Upload Photos

1,773,319 photos uploaded!

WunderBlogs® & News

Nearby

Air Quality

  Air Quality AQ Index Pollutant
Not available.

Snow Depth

Station Depth Elevation

Earthquake Activity

City Distance Mag. Time & Date
Minimum magnitude displayed is 2.5.

Coastal Water Temperatures

Place Temperature

Nearby Weather Stations